createdAt,value
2022-11-29T00:01:41.235Z,-4.50
2022-11-29T00:04:14.810Z,-4.59
2022-11-29T00:06:48.597Z,-4.59
2022-11-29T00:09:21.943Z,-4.52
2022-11-29T00:12:13.931Z,-4.45
2022-11-29T00:14:47.635Z,-4.37
2022-11-29T00:17:21.207Z,-4.34
2022-11-29T00:19:54.792Z,-4.42
2022-11-29T00:22:29.429Z,-4.38
2022-11-29T00:25:03.371Z,-4.35
2022-11-29T00:27:36.782Z,-4.33
2022-11-29T00:30:12.555Z,-4.27
2022-11-29T00:32:46.122Z,-4.20
2022-11-29T00:35:19.782Z,-4.21
2022-11-29T00:37:53.355Z,-4.25
2022-11-29T00:40:27.001Z,-4.29
2022-11-29T00:43:00.538Z,-4.26
2022-11-29T00:45:34.187Z,-4.26
2022-11-29T00:48:08.737Z,-4.22
2022-11-29T00:50:42.185Z,-4.22
2022-11-29T00:53:16.651Z,-4.23
2022-11-29T00:55:52.763Z,-4.37
2022-11-29T00:58:26.787Z,-4.37
2022-11-29T01:01:00.316Z,-4.35
2022-11-29T01:03:33.916Z,-4.29
2022-11-29T01:06:09.234Z,-4.29
2022-11-29T01:08:42.673Z,-4.40
2022-11-29T01:11:18.719Z,-4.44
2022-11-29T01:13:54.160Z,-4.38
2022-11-29T01:16:28.685Z,-4.36
2022-11-29T01:19:02.658Z,-4.33
2022-11-29T01:21:36.492Z,-4.31
2022-11-29T01:24:10.125Z,-4.36
2022-11-29T01:26:43.562Z,-4.46
2022-11-29T01:29:17.023Z,-4.50
2022-11-29T01:31:50.501Z,-4.61
2022-11-29T01:34:23.912Z,-4.63
2022-11-29T01:36:57.413Z,-4.61
2022-11-29T01:39:30.910Z,-4.63
2022-11-29T01:42:04.480Z,-4.61
2022-11-29T01:45:16.679Z,-4.53
2022-11-29T01:47:52.935Z,-4.60
2022-11-29T01:50:26.373Z,-4.58
2022-11-29T01:53:00.238Z,-4.68
2022-11-29T01:55:34.377Z,-4.64
2022-11-29T01:58:09.465Z,-4.60
2022-11-29T02:00:42.611Z,-4.65
2022-11-29T02:03:19.118Z,-4.69
2022-11-29T02:05:54.615Z,-4.57
2022-11-29T02:08:31.159Z,-4.67
2022-11-29T02:14:44.534Z,-4.60
2022-11-29T02:17:23.209Z,-4.67
2022-11-29T02:20:24.084Z,-4.73
2022-11-29T02:23:00.134Z,-4.76
2022-11-29T02:25:47.398Z,-4.79
2022-11-29T02:28:56.999Z,-4.82
2022-11-29T02:35:02.159Z,-4.63
2022-11-29T02:37:53.061Z,-4.79
2022-11-29T02:40:52.358Z,-4.83
2022-11-29T02:43:38.694Z,-4.83
2022-11-29T02:46:21.185Z,-4.83
2022-11-29T02:48:59.538Z,-4.91
2022-11-29T02:51:36.838Z,-4.95
2022-11-29T02:54:16.701Z,-5.04
2022-11-29T02:56:54.197Z,-5.06
2022-11-29T02:59:36.978Z,-5.13
2022-11-29T03:02:16.046Z,-5.11
2022-11-29T03:04:52.357Z,-5.16
2022-11-29T03:07:28.778Z,-5.27
2022-11-29T03:10:06.457Z,-5.24
2022-11-29T03:12:40.770Z,-5.18
2022-11-29T03:15:23.353Z,-5.24
2022-11-29T03:18:05.567Z,-5.34
2022-11-29T03:20:43.095Z,-5.31
2022-11-29T03:23:21.857Z,-5.29
2022-11-29T03:25:59.067Z,-5.35
2022-11-29T03:28:35.737Z,-5.39
2022-11-29T03:31:14.135Z,-5.36
2022-11-29T03:33:52.617Z,-5.37
2022-11-29T03:36:31.546Z,-5.36
2022-11-29T03:39:07.844Z,-5.33
2022-11-29T03:41:44.770Z,-5.31
2022-11-29T03:44:21.665Z,-5.25
2022-11-29T03:46:58.368Z,-5.30
2022-11-29T03:49:34.679Z,-5.35
2022-11-29T03:52:11.256Z,-5.31
2022-11-29T03:54:50.635Z,-5.31
2022-11-29T03:57:27.388Z,-5.31
2022-11-29T04:00:05.139Z,-5.26
2022-11-29T04:03:17.330Z,-5.20
2022-11-29T04:09:14.693Z,-5.22
2022-11-29T04:12:10.414Z,-5.32
2022-11-29T04:15:16.643Z,-5.30
2022-11-29T04:18:10.420Z,-5.28
2022-11-29T04:21:10.180Z,-5.26
2022-11-29T04:24:12.408Z,-5.26
2022-11-29T04:27:08.541Z,-5.28
2022-11-29T04:30:00.258Z,-5.28
2022-11-29T04:33:13.541Z,-5.28
2022-11-29T04:36:07.808Z,-5.25
2022-11-29T04:39:06.557Z,-5.19
2022-11-29T04:42:12.964Z,-5.15
2022-11-29T04:45:01.266Z,-5.15
2022-11-29T04:47:47.036Z,-5.19
2022-11-29T04:50:28.879Z,-5.20
2022-11-29T04:56:15.639Z,-5.20
2022-11-29T04:58:53.995Z,-5.38
2022-11-29T05:01:30.682Z,-5.42
2022-11-29T05:04:08.770Z,-5.41
2022-11-29T05:06:45.653Z,-5.37
2022-11-29T05:09:22.468Z,-5.37
2022-11-29T05:12:02.004Z,-5.39
2022-11-29T05:14:43.277Z,-5.33
2022-11-29T05:17:28.974Z,-5.28
2022-11-29T05:20:16.362Z,-5.27
2022-11-29T05:22:56.037Z,-5.37
2022-11-29T05:25:43.761Z,-5.49
2022-11-29T05:28:22.939Z,-5.48
2022-11-29T05:31:15.048Z,-5.55
2022-11-29T05:34:21.634Z,-5.58
2022-11-29T05:36:59.730Z,-5.56
2022-11-29T05:39:45.882Z,-5.57
2022-11-29T05:42:28.984Z,-5.55
2022-11-29T05:45:06.814Z,-5.54
2022-11-29T05:47:40.517Z,-5.50
2022-11-29T05:50:17.391Z,-5.54
2022-11-29T05:52:54.243Z,-5.51
2022-11-29T05:55:33.763Z,-5.52
2022-11-29T05:58:11.148Z,-5.54
2022-11-29T06:00:47.767Z,-5.55
2022-11-29T06:03:25.736Z,-5.57
2022-11-29T06:06:02.396Z,-5.56
2022-11-29T06:08:40.147Z,-5.64
2022-11-29T06:11:17.748Z,-5.65
2022-11-29T06:13:53.925Z,-5.61
2022-11-29T06:16:51.038Z,-5.54
2022-11-29T06:19:45.060Z,-5.57
2022-11-29T06:22:27.573Z,-5.61
2022-11-29T06:25:11.723Z,-5.71
2022-11-29T06:27:53.331Z,-5.72
2022-11-29T06:30:30.409Z,-5.67
2022-11-29T06:33:06.662Z,-5.68
2022-11-29T06:35:45.914Z,-5.67
2022-11-29T06:38:22.230Z,-5.72
2022-11-29T06:41:01.875Z,-5.77
2022-11-29T06:43:33.715Z,-5.76
2022-11-29T06:46:10.166Z,-5.74
2022-11-29T06:48:46.597Z,-5.77
2022-11-29T06:51:23.559Z,-5.77
2022-11-29T06:54:01.067Z,-5.80
2022-11-29T06:56:40.780Z,-5.85
2022-11-29T06:59:18.099Z,-5.83
2022-11-29T07:01:54.484Z,-5.82
2022-11-29T07:04:54.577Z,-5.81
2022-11-29T07:07:28.718Z,-5.83
2022-11-29T07:10:06.076Z,-5.84
2022-11-29T07:12:41.557Z,-5.80
2022-11-29T07:15:19.911Z,-5.78
2022-11-29T07:18:01.042Z,-5.81
2022-11-29T07:20:38.232Z,-5.76
2022-11-29T07:23:16.228Z,-5.77
2022-11-29T07:25:54.479Z,-5.74
2022-11-29T07:28:35.534Z,-5.75
2022-11-29T07:31:12.473Z,-5.74
2022-11-29T07:33:51.781Z,-5.83
2022-11-29T07:36:30.141Z,-5.87
2022-11-29T07:39:07.189Z,-5.85
2022-11-29T07:41:44.277Z,-5.78
2022-11-29T07:44:21.399Z,-5.82
2022-11-29T07:46:54.867Z,-5.89
2022-11-29T07:49:28.163Z,-5.89
2022-11-29T07:52:01.670Z,-5.90
2022-11-29T07:54:35.085Z,-5.85
2022-11-29T07:57:08.214Z,-5.72
2022-11-29T07:59:41.880Z,-5.61
2022-11-29T08:02:15.330Z,-5.65
2022-11-29T08:04:48.792Z,-5.67
2022-11-29T08:07:22.234Z,-5.60
2022-11-29T08:09:55.725Z,-5.59
2022-11-29T08:12:29.165Z,-5.75
2022-11-29T08:15:02.926Z,-5.77
2022-11-29T08:17:37.880Z,-5.82
2022-11-29T08:20:12.975Z,-5.76
2022-11-29T08:22:46.469Z,-5.70
2022-11-29T08:25:20.183Z,-5.66
2022-11-29T08:27:54.750Z,-5.66
2022-11-29T08:30:27.797Z,-5.54
2022-11-29T08:33:01.057Z,-5.53
2022-11-29T08:35:35.716Z,-5.55
2022-11-29T08:38:09.212Z,-5.52
2022-11-29T08:40:42.697Z,-5.61
2022-11-29T08:43:16.223Z,-5.60
2022-11-29T08:45:54.177Z,-5.58
2022-11-29T08:48:27.772Z,-5.60
2022-11-29T08:51:01.381Z,-5.59
2022-11-29T08:53:43.745Z,-5.56
2022-11-29T08:58:55.170Z,-5.26
2022-11-29T09:01:29.563Z,-4.92
2022-11-29T09:04:03.747Z,-4.83
2022-11-29T09:06:40.383Z,-4.90
2022-11-29T09:09:13.882Z,-4.82
2022-11-29T09:11:49.577Z,-4.77
2022-11-29T09:14:22.971Z,-4.84
2022-11-29T09:16:56.420Z,-4.76
2022-11-29T09:19:30.317Z,-4.34
2022-11-29T09:22:03.885Z,-4.34
2022-11-29T09:24:37.035Z,-4.30
2022-11-29T09:27:10.477Z,-4.37
2022-11-29T09:29:43.665Z,-4.46
2022-11-29T09:32:17.141Z,-4.50
2022-11-29T09:34:50.553Z,-4.26
2022-11-29T09:37:23.991Z,-4.22
2022-11-29T09:39:57.389Z,-4.06
2022-11-29T09:42:50.427Z,-3.84
2022-11-29T09:45:28.174Z,-3.83
2022-11-29T09:48:07.735Z,-3.78
2022-11-29T09:50:43.287Z,-3.65
2022-11-29T09:53:25.261Z,-3.78
2022-11-29T09:56:08.683Z,-3.79
2022-11-29T09:58:45.668Z,-3.69
2022-11-29T10:01:24.892Z,-3.76
2022-11-29T10:04:01.209Z,-3.95
2022-11-29T10:06:38.876Z,-3.57
2022-11-29T10:09:17.785Z,-3.24
2022-11-29T10:12:00.948Z,-3.07
2022-11-29T10:14:37.566Z,-3.03
2022-11-29T10:17:16.730Z,-2.87
2022-11-29T10:19:53.149Z,-2.93
2022-11-29T10:22:29.567Z,-2.95
2022-11-29T10:25:04.938Z,-2.66
2022-11-29T10:27:40.393Z,-2.42
2022-11-29T10:30:18.245Z,-2.24
2022-11-29T10:32:54.929Z,-2.07
2022-11-29T10:35:29.774Z,-2.14
2022-11-29T10:40:42.347Z,-2.40
2022-11-29T10:43:16.309Z,-2.46
2022-11-29T10:45:53.420Z,-2.81
2022-11-29T10:48:31.878Z,-3.16
2022-11-29T10:51:05.273Z,-3.43
2022-11-29T10:53:39.875Z,-3.67
2022-11-29T10:56:17.871Z,-3.79
2022-11-29T10:59:01.263Z,-3.79
2022-11-29T11:01:37.526Z,-3.82
2022-11-29T11:04:14.211Z,-4.02
2022-11-29T11:06:51.612Z,-3.99
2022-11-29T11:09:28.850Z,-3.92
2022-11-29T11:12:04.325Z,-3.83
2022-11-29T11:14:38.885Z,-3.74
2022-11-29T11:17:22.014Z,-3.79
2022-11-29T11:20:01.378Z,-3.69
2022-11-29T11:22:38.187Z,-3.51
2022-11-29T11:25:27.679Z,-3.24
2022-11-29T11:28:15.502Z,-3.06
2022-11-29T11:30:56.266Z,-2.82
2022-11-29T11:33:31.260Z,-2.66
2022-11-29T11:36:15.428Z,-2.44
2022-11-29T11:38:55.012Z,-2.22
2022-11-29T11:41:50.060Z,-2.01
2022-11-29T11:44:46.900Z,-2.00
2022-11-29T11:47:06.984Z,-2.10
2022-11-29T11:49:43.122Z,-2.38
2022-11-29T11:52:21.932Z,-2.64
2022-11-29T11:54:58.432Z,-2.70
2022-11-29T11:57:34.183Z,-2.71
2022-11-29T12:00:12.765Z,-2.70
2022-11-29T12:02:45.899Z,-2.82
2022-11-29T12:05:21.090Z,-2.94
2022-11-29T12:08:07.883Z,-3.28
2022-11-29T12:10:35.688Z,-3.72
2022-11-29T12:13:10.337Z,-4.00
2022-11-29T12:15:46.572Z,-4.11
2022-11-29T12:18:23.725Z,-4.25
2022-11-29T12:20:59.969Z,-4.44
2022-11-29T12:23:37.209Z,-4.60
2022-11-29T12:26:19.109Z,-4.62
2022-11-29T12:28:47.525Z,-4.51
2022-11-29T12:31:35.426Z,-4.32
2022-11-29T12:34:22.002Z,-4.19
2022-11-29T12:36:55.173Z,-4.04
2022-11-29T12:39:37.484Z,-4.02
2022-11-29T12:42:13.799Z,-4.03
2022-11-29T12:44:53.052Z,-4.17
2022-11-29T12:47:36.406Z,-4.37
2022-11-29T12:50:26.599Z,-4.55
2022-11-29T12:53:05.744Z,-4.79
2022-11-29T12:55:43.980Z,-4.89
2022-11-29T12:58:21.507Z,-5.06
2022-11-29T13:00:58.355Z,-5.19
2022-11-29T13:03:34.629Z,-5.32
2022-11-29T13:06:13.684Z,-5.45
2022-11-29T13:09:15.053Z,-5.55
2022-11-29T13:11:51.551Z,-5.68
2022-11-29T13:14:42.715Z,-5.86
2022-11-29T13:17:05.998Z,-5.97
2022-11-29T13:19:42.072Z,-6.26
2022-11-29T13:22:19.109Z,-6.41
2022-11-29T13:24:55.764Z,-6.53
2022-11-29T13:27:32.128Z,-6.74
2022-11-29T13:30:08.019Z,-6.91
2022-11-29T13:32:44.403Z,-7.03
2022-11-29T13:35:22.511Z,-7.14
2022-11-29T13:37:59.466Z,-7.26
2022-11-29T13:40:38.912Z,-7.30
2022-11-29T13:43:16.064Z,-7.40
2022-11-29T13:45:53.407Z,-7.41
2022-11-29T13:48:37.231Z,-7.44
2022-11-29T13:51:34.629Z,-7.55
2022-11-29T13:54:10.447Z,-7.71
2022-11-29T13:56:46.712Z,-7.85
2022-11-29T13:59:23.011Z,-7.93
2022-11-29T14:01:58.556Z,-7.94
2022-11-29T14:04:36.758Z,-8.07
2022-11-29T14:07:13.477Z,-8.12
2022-11-29T14:09:55.411Z,-8.15
2022-11-29T14:12:39.724Z,-8.21
2022-11-29T14:15:23.103Z,-8.26
2022-11-29T14:17:58.465Z,-8.28
2022-11-29T14:21:00.545Z,-8.39
2022-11-29T14:23:40.609Z,-8.43
2022-11-29T14:26:32.773Z,-8.45
2022-11-29T14:29:14.531Z,-8.51
2022-11-29T14:31:57.802Z,-8.50
2022-11-29T14:34:47.386Z,-8.51
2022-11-29T14:37:53.336Z,-8.58
2022-11-29T14:40:37.880Z,-8.57
2022-11-29T14:43:25.130Z,-8.67
2022-11-29T14:46:13.680Z,-8.68
2022-11-29T14:48:49.635Z,-8.72
2022-11-29T14:51:24.218Z,-8.72
2022-11-29T14:54:11.734Z,-8.73
2022-11-29T14:56:46.197Z,-8.74
2022-11-29T14:59:45.676Z,-8.74
2022-11-29T15:02:33.710Z,-8.75
2022-11-29T15:05:17.075Z,-8.80
2022-11-29T15:07:55.082Z,-8.81
2022-11-29T15:10:31.577Z,-8.81
2022-11-29T15:13:06.589Z,-8.80
2022-11-29T15:15:48.946Z,-8.80
2022-11-29T15:18:30.275Z,-8.82
2022-11-29T15:21:11.900Z,-8.85
2022-11-29T15:23:46.388Z,-8.91
2022-11-29T15:26:21.832Z,-8.89
2022-11-29T15:28:55.307Z,-8.87
2022-11-29T15:31:29.587Z,-8.84
2022-11-29T15:34:03.127Z,-8.85
2022-11-29T15:36:39.569Z,-8.84
2022-11-29T15:39:28.880Z,-8.85
2022-11-29T15:42:08.531Z,-8.86
2022-11-29T15:44:47.431Z,-8.87
2022-11-29T15:47:24.309Z,-8.87
2022-11-29T15:49:58.045Z,-8.88
2022-11-29T15:52:34.360Z,-8.90
2022-11-29T15:55:11.192Z,-8.91
2022-11-29T15:57:47.305Z,-8.89
2022-11-29T16:00:25.771Z,-8.91
2022-11-29T16:03:02.041Z,-9.00
2022-11-29T16:05:38.418Z,-9.01
2022-11-29T16:08:15.633Z,-9.02
2022-11-29T16:10:52.798Z,-9.05
2022-11-29T16:16:53.454Z,-8.99
2022-11-29T16:19:32.942Z,-9.12
2022-11-29T16:22:18.638Z,-9.16
2022-11-29T16:24:57.984Z,-9.15
2022-11-29T16:27:34.114Z,-9.16
2022-11-29T16:30:09.813Z,-9.15
2022-11-29T16:32:47.474Z,-9.15
2022-11-29T16:35:24.391Z,-9.15
2022-11-29T16:37:58.664Z,-9.12
2022-11-29T16:40:33.297Z,-9.10
2022-11-29T16:43:18.079Z,-9.08
2022-11-29T16:45:53.044Z,-9.07
2022-11-29T16:48:35.673Z,-9.04
2022-11-29T16:54:24.965Z,-8.90
2022-11-29T16:56:59.330Z,-9.01
2022-11-29T16:59:33.315Z,-9.02
2022-11-29T17:02:10.999Z,-8.97
2022-11-29T17:04:45.661Z,-8.95
2022-11-29T17:07:22.071Z,-8.92
2022-11-29T17:09:56.004Z,-8.93
2022-11-29T17:12:32.375Z,-8.96
2022-11-29T17:15:06.498Z,-9.01
2022-11-29T17:17:40.097Z,-9.05
2022-11-29T17:20:15.495Z,-9.06
2022-11-29T17:22:49.016Z,-9.06
2022-11-29T17:25:22.453Z,-9.09
2022-11-29T17:27:56.482Z,-9.08
2022-11-29T17:30:30.167Z,-9.11
2022-11-29T17:33:03.908Z,-9.15
2022-11-29T17:35:38.749Z,-9.21
2022-11-29T17:38:12.158Z,-9.20
2022-11-29T17:40:45.529Z,-9.30
2022-11-29T17:43:19.036Z,-9.35
2022-11-29T17:45:52.713Z,-9.36
2022-11-29T17:48:32.013Z,-9.38
2022-11-29T17:51:03.622Z,-9.42
2022-11-29T17:53:38.644Z,-9.46
2022-11-29T17:56:13.520Z,-9.50
2022-11-29T17:58:47.146Z,-9.55
2022-11-29T18:01:22.671Z,-9.58
2022-11-29T18:03:58.307Z,-9.63
2022-11-29T18:06:33.792Z,-9.65
2022-11-29T18:09:09.878Z,-9.65
2022-11-29T18:11:48.637Z,-9.61
2022-11-29T18:14:23.104Z,-9.60
2022-11-29T18:16:56.796Z,-9.60
2022-11-29T18:19:31.466Z,-9.59
2022-11-29T18:22:04.763Z,-9.60
2022-11-29T18:24:40.173Z,-9.58
2022-11-29T18:27:14.220Z,-9.58
2022-11-29T18:29:48.315Z,-9.56
2022-11-29T18:32:22.021Z,-9.56
2022-11-29T18:34:55.906Z,-9.55
2022-11-29T18:38:05.039Z,-9.52
2022-11-29T18:40:04.934Z,-9.49
2022-11-29T18:42:38.911Z,-9.49
2022-11-29T18:45:13.035Z,-9.45
2022-11-29T18:47:46.248Z,-9.45
2022-11-29T18:50:20.006Z,-9.46
2022-11-29T18:52:55.276Z,-9.45
2022-11-29T18:55:29.415Z,-9.44
2022-11-29T18:58:02.954Z,-9.41
2022-11-29T19:00:36.731Z,-9.40
2022-11-29T19:03:10.501Z,-9.38
2022-11-29T19:05:52.975Z,-9.36
2022-11-29T19:08:26.796Z,-9.36
2022-11-29T19:11:00.440Z,-9.37
2022-11-29T19:13:34.112Z,-9.37
2022-11-29T19:16:13.017Z,-9.37
2022-11-29T19:18:47.497Z,-9.37
2022-11-29T19:21:21.648Z,-9.37
2022-11-29T19:23:57.089Z,-9.37
2022-11-29T19:26:32.954Z,-9.38
2022-11-29T19:29:06.716Z,-9.43
2022-11-29T19:31:40.245Z,-9.46
2022-11-29T19:34:14.085Z,-9.51
2022-11-29T19:36:47.550Z,-9.54
2022-11-29T19:39:21.169Z,-9.57
2022-11-29T19:41:54.890Z,-9.58
2022-11-29T19:44:30.098Z,-9.60
2022-11-29T19:47:03.753Z,-9.60
2022-11-29T19:49:38.937Z,-9.59
2022-11-29T19:52:12.181Z,-9.62
2022-11-29T19:54:45.807Z,-9.63
2022-11-29T19:57:19.674Z,-9.63
2022-11-29T19:59:53.505Z,-9.64
2022-11-29T20:02:28.038Z,-9.66
2022-11-29T20:05:01.874Z,-9.70
2022-11-29T20:07:35.399Z,-9.71
2022-11-29T20:10:10.892Z,-9.71
2022-11-29T20:12:43.974Z,-9.72
2022-11-29T20:15:17.914Z,-9.75
2022-11-29T20:17:54.055Z,-9.79
2022-11-29T20:20:27.475Z,-9.78
2022-11-29T20:23:00.924Z,-9.79
2022-11-29T20:25:36.813Z,-9.80
2022-11-29T20:28:10.265Z,-9.76
2022-11-29T20:30:43.553Z,-9.71
2022-11-29T20:33:21.563Z,-9.71
2022-11-29T20:35:57.768Z,-9.72
2022-11-29T20:38:35.114Z,-9.70
2022-11-29T20:41:11.519Z,-9.69
2022-11-29T20:43:47.867Z,-9.68
2022-11-29T20:46:21.866Z,-9.69
2022-11-29T20:49:00.413Z,-9.68
2022-11-29T20:51:36.155Z,-9.70
2022-11-29T20:54:11.644Z,-9.72
2022-11-29T20:56:45.071Z,-9.76
2022-11-29T20:59:18.389Z,-9.78
2022-11-29T21:01:51.910Z,-9.79
2022-11-29T21:04:25.579Z,-9.84
2022-11-29T21:06:59.128Z,-9.87
2022-11-29T21:09:32.659Z,-9.90
2022-11-29T21:12:07.480Z,-9.92
2022-11-29T21:14:43.069Z,-9.95
2022-11-29T21:17:17.400Z,-9.99
2022-11-29T21:19:52.111Z,-10.05
2022-11-29T21:22:28.886Z,-10.04
2022-11-29T21:25:06.021Z,-10.05
2022-11-29T21:27:40.557Z,-10.09
2022-11-29T21:30:19.472Z,-10.07
2022-11-29T21:32:54.335Z,-10.05
2022-11-29T21:35:27.803Z,-9.99
2022-11-29T21:38:03.131Z,-9.86
2022-11-29T21:40:37.634Z,-9.78
2022-11-29T21:43:11.031Z,-9.77
2022-11-29T21:45:44.459Z,-9.79
2022-11-29T21:48:36.306Z,-9.84
2022-11-29T21:51:11.879Z,-9.86
2022-11-29T21:53:45.299Z,-9.94
2022-11-29T21:56:18.935Z,-10.04
2022-11-29T21:58:52.304Z,-10.07
2022-11-29T22:01:27.285Z,-10.05
2022-11-29T22:04:01.193Z,-10.04
2022-11-29T22:06:36.853Z,-10.02
2022-11-29T22:09:10.158Z,-9.99
2022-11-29T22:11:43.933Z,-10.05
2022-11-29T22:14:19.200Z,-10.11
2022-11-29T22:16:54.436Z,-10.16
2022-11-29T22:19:30.497Z,-10.21
2022-11-29T22:22:06.552Z,-10.24
2022-11-29T22:24:40.287Z,-10.28
2022-11-29T22:27:13.922Z,-10.33
2022-11-29T22:29:47.629Z,-10.38
2022-11-29T22:32:20.742Z,-10.35
2022-11-29T22:34:54.151Z,-10.30
2022-11-29T22:37:27.787Z,-10.25
2022-11-29T22:40:01.264Z,-10.22
2022-11-29T22:42:35.055Z,-10.19
2022-11-29T22:45:09.981Z,-10.13
2022-11-29T22:47:43.520Z,-10.11
2022-11-29T22:50:17.421Z,-10.18
2022-11-29T22:52:50.723Z,-10.19
2022-11-29T22:55:23.813Z,-10.21
2022-11-29T22:57:57.269Z,-10.24
2022-11-29T23:00:31.024Z,-10.27
2022-11-29T23:03:04.427Z,-10.28
2022-11-29T23:05:37.686Z,-10.23
2022-11-29T23:08:11.168Z,-10.16
2022-11-29T23:10:45.127Z,-10.23
2022-11-29T23:13:18.424Z,-10.31
2022-11-29T23:15:52.390Z,-10.30
2022-11-29T23:18:25.700Z,-10.38
2022-11-29T23:21:04.445Z,-10.47
2022-11-29T23:23:38.655Z,-10.50
2022-11-29T23:26:13.890Z,-10.53
2022-11-29T23:28:48.455Z,-10.56
2022-11-29T23:31:23.008Z,-10.58
2022-11-29T23:33:57.094Z,-10.59
2022-11-29T23:36:31.026Z,-10.60
2022-11-29T23:39:04.276Z,-10.64
2022-11-29T23:41:38.760Z,-10.68
2022-11-29T23:44:12.464Z,-10.65
2022-11-29T23:46:45.872Z,-10.64
2022-11-29T23:49:19.549Z,-10.66
2022-11-29T23:51:52.753Z,-10.69
2022-11-29T23:54:26.723Z,-10.69
2022-11-29T23:57:00.145Z,-10.72
2022-11-29T23:59:33.841Z,-10.80
